Centreville, Michigan
Current Conditions -  °F | °C
As of 7:14 PM on Thursday 27 Nov 2014 (Local Time) from KHAI Reporting Station
Light Snow Light Snow  
Wind Chill: 16°   Ceiling: 6000
Heat Index: 25°   Visibility: 10mi
Dew Point: 20°   Wind: 9mph
Humidity: 81%   Direction: 340°NNW
Pressure: 30.32"   Gusts: NA
Location:  41.92°N, 85.53°W
Report Text: KHAI 280014Z AUTO 34008KT 10SM -SN SCT039 OVC060 M04/M07 A3032 RMK AO2 T10371066
Loading
Personal Weather Stations






























Interactive Weather Map New forecast layout! Learn more

10-Day Weather Forecast

Advertisements
Track Severe Weather on mobile